createdAt,value
2023-05-14T00:01:54.843Z,17.54
2023-05-14T00:04:27.015Z,17.53
2023-05-14T00:07:43.567Z,17.18
2023-05-14T00:10:16.139Z,17.15
2023-05-14T00:13:39.621Z,17.05
2023-05-14T00:17:09.353Z,16.48
2023-05-14T00:20:44.264Z,16.49
2023-05-14T00:23:34.667Z,16.71
2023-05-14T00:26:22.919Z,17.02
2023-05-14T00:29:12.946Z,16.31
2023-05-14T00:31:55.488Z,16.01
2023-05-14T00:35:30.636Z,16.08
2023-05-14T00:39:11.391Z,16.14
2023-05-14T00:42:53.528Z,16.00
2023-05-14T00:46:21.889Z,16.12
2023-05-14T00:49:41.853Z,15.58
2023-05-14T00:53:14.795Z,15.66
2023-05-14T00:56:24.510Z,15.64
2023-05-14T00:59:49.733Z,15.75
2023-05-14T01:03:20.398Z,16.26
2023-05-14T01:07:17.499Z,16.04
2023-05-14T01:11:15.930Z,16.49
2023-05-14T01:14:46.046Z,16.45
2023-05-14T01:18:02.133Z,16.71
2023-05-14T01:21:41.344Z,17.29
2023-05-14T01:24:59.321Z,17.53
2023-05-14T01:28:24.372Z,18.02
2023-05-14T01:32:03.003Z,18.66
2023-05-14T01:35:51.706Z,19.01
2023-05-14T01:39:35.209Z,19.10
2023-05-14T01:43:01.378Z,19.89
2023-05-14T01:46:08.004Z,19.96
2023-05-14T01:49:25.758Z,20.62
2023-05-14T01:52:21.961Z,20.96
2023-05-14T01:55:49.881Z,21.01
2023-05-14T01:58:30.396Z,21.24
2023-05-14T02:01:41.772Z,21.53
2023-05-14T02:04:27.868Z,21.89
2023-05-14T02:06:57.550Z,21.93
2023-05-14T02:09:36.396Z,22.19
2023-05-14T02:12:14.995Z,22.82
2023-05-14T02:14:50.367Z,22.84
2023-05-14T02:17:20.661Z,23.00
2023-05-14T02:19:50.399Z,23.28
2023-05-14T02:22:50.075Z,23.58
2023-05-14T02:25:39.830Z,23.49
2023-05-14T02:28:52.309Z,23.92
2023-05-14T02:31:46.773Z,24.12
2023-05-14T02:35:02.373Z,24.23
2023-05-14T02:38:13.080Z,24.51
2023-05-14T02:41:06.913Z,24.58
2023-05-14T02:44:07.479Z,24.95
2023-05-14T02:47:03.769Z,25.01
2023-05-14T02:49:48.118Z,25.50
2023-05-14T02:52:51.912Z,25.64
2023-05-14T02:56:18.882Z,25.92
2023-05-14T02:59:13.884Z,25.85
2023-05-14T03:02:36.745Z,26.28
2023-05-14T03:05:52.862Z,27.19
2023-05-14T03:09:13.673Z,27.01
2023-05-14T03:12:25.902Z,27.34
2023-05-14T03:16:12.429Z,26.92
2023-05-14T03:19:00.366Z,27.25
2023-05-14T03:22:02.795Z,27.35
2023-05-14T03:25:18.349Z,27.80
2023-05-14T03:28:27.423Z,28.22
2023-05-14T03:31:41.901Z,28.28
2023-05-14T03:34:50.200Z,28.47
2023-05-14T03:38:00.583Z,28.97
2023-05-14T03:40:39.905Z,29.12
2023-05-14T03:43:53.333Z,29.19
2023-05-14T03:46:24.378Z,29.08
2023-05-14T03:49:22.461Z,29.35
2023-05-14T03:52:40.771Z,29.44
2023-05-14T03:55:31.649Z,29.34
2023-05-14T03:58:01.239Z,29.48
2023-05-14T04:00:52.869Z,29.74
2023-05-14T04:03:28.425Z,29.67
2023-05-14T04:06:02.986Z,29.80
2023-05-14T04:09:16.243Z,30.01
2023-05-14T04:12:05.833Z,30.04
2023-05-14T04:15:06.326Z,30.27
2023-05-14T04:18:13.469Z,30.58
2023-05-14T04:20:48.968Z,30.88
2023-05-14T04:23:36.059Z,30.60
2023-05-14T04:26:12.134Z,30.64
2023-05-14T04:29:06.399Z,31.05
2023-05-14T04:31:44.651Z,31.55
2023-05-14T04:34:16.727Z,31.97
2023-05-14T04:36:46.469Z,32.24
2023-05-14T04:39:16.018Z,32.36
2023-05-14T04:41:50.399Z,32.01
2023-05-14T04:44:28.074Z,31.74
2023-05-14T04:47:03.377Z,31.84
2023-05-14T04:49:38.200Z,32.69
2023-05-14T04:52:13.981Z,33.06
2023-05-14T04:55:16.551Z,33.48
2023-05-14T04:57:52.378Z,33.73
2023-05-14T05:00:33.708Z,33.72
2023-05-14T05:03:09.169Z,34.10
2023-05-14T05:06:03.862Z,33.90
2023-05-14T05:08:41.946Z,34.06
2023-05-14T05:11:14.398Z,34.23
2023-05-14T05:13:44.386Z,34.51
2023-05-14T05:16:15.782Z,34.78
2023-05-14T05:18:55.262Z,35.01
2023-05-14T05:22:03.044Z,34.55
2023-05-14T05:24:32.138Z,34.84
2023-05-14T05:27:01.111Z,35.11
2023-05-14T05:29:58.687Z,35.25
2023-05-14T05:32:28.055Z,35.26
2023-05-14T05:34:57.545Z,35.51
2023-05-14T05:37:26.978Z,35.55
2023-05-14T05:39:56.179Z,35.59
2023-05-14T05:42:25.625Z,35.92
2023-05-14T05:44:54.698Z,36.18
2023-05-14T05:47:26.314Z,36.40
2023-05-14T05:49:57.818Z,37.00
2023-05-14T05:52:26.819Z,37.15
2023-05-14T05:54:58.773Z,37.19
2023-05-14T05:57:28.270Z,37.19
2023-05-14T05:59:57.166Z,37.07
2023-05-14T06:02:26.454Z,37.24
2023-05-14T06:04:55.691Z,37.49
2023-05-14T06:07:24.617Z,37.51
2023-05-14T06:09:53.567Z,37.55
2023-05-14T06:12:22.804Z,37.67
2023-05-14T06:14:52.403Z,37.86
2023-05-14T06:17:22.417Z,38.11
2023-05-14T06:19:54.737Z,38.05
2023-05-14T06:22:24.140Z,38.36
2023-05-14T06:24:53.339Z,38.62
2023-05-14T06:27:22.254Z,38.58
2023-05-14T06:29:51.355Z,38.93
2023-05-14T06:32:20.558Z,39.10
2023-05-14T06:34:49.979Z,39.24
2023-05-14T06:37:22.018Z,39.49
2023-05-14T06:39:54.689Z,39.71
2023-05-14T06:42:24.803Z,39.91
2023-05-14T06:44:53.758Z,40.08
2023-05-14T06:47:22.802Z,40.22
2023-05-14T06:49:51.698Z,40.36
2023-05-14T06:52:20.944Z,40.83
2023-05-14T06:54:49.893Z,40.92
2023-05-14T06:57:18.874Z,41.11
2023-05-14T06:59:47.881Z,40.99
2023-05-14T07:02:17.219Z,41.23
2023-05-14T07:04:48.649Z,41.40
2023-05-14T07:07:21.468Z,41.58
2023-05-14T07:09:50.624Z,41.76
2023-05-14T07:12:20.131Z,41.80
2023-05-14T07:14:49.272Z,42.00
2023-05-14T07:17:18.641Z,42.23
2023-05-14T07:19:48.343Z,42.51
2023-05-14T07:22:18.195Z,42.65
2023-05-14T07:24:47.605Z,42.86
2023-05-14T07:27:17.881Z,42.98
2023-05-14T07:29:47.256Z,43.14
2023-05-14T07:32:16.303Z,43.41
2023-05-14T07:34:52.516Z,43.78
2023-05-14T07:37:27.161Z,43.89
2023-05-14T07:40:21.704Z,43.97
2023-05-14T07:42:50.817Z,44.04
2023-05-14T07:45:20.411Z,44.09
2023-05-14T07:47:54.965Z,44.21
2023-05-14T07:50:25.146Z,44.32
2023-05-14T07:52:56.992Z,44.47
2023-05-14T07:55:27.160Z,44.60
2023-05-14T07:57:56.637Z,44.79
2023-05-14T08:00:25.956Z,44.91
2023-05-14T08:02:56.471Z,45.13
2023-05-14T08:05:28.518Z,45.31
2023-05-14T08:08:00.346Z,45.40
2023-05-14T08:10:29.667Z,45.63
2023-05-14T08:12:58.940Z,45.89
2023-05-14T08:15:28.109Z,46.14
2023-05-14T08:17:57.406Z,46.37
2023-05-14T08:20:26.755Z,46.63
2023-05-14T08:22:59.193Z,46.95
2023-05-14T08:25:37.420Z,47.15
2023-05-14T08:28:07.081Z,47.15
2023-05-14T08:30:36.045Z,47.37
2023-05-14T08:33:05.800Z,47.51
2023-05-14T08:35:37.811Z,47.61
2023-05-14T08:38:07.000Z,47.75
2023-05-14T08:40:36.860Z,47.97
2023-05-14T08:43:07.840Z,48.01
2023-05-14T08:45:38.543Z,48.05
2023-05-14T08:48:20.101Z,48.24
2023-05-14T08:50:49.259Z,48.37
2023-05-14T08:53:22.422Z,48.53
2023-05-14T08:55:56.123Z,48.52
2023-05-14T08:58:30.775Z,48.70
2023-05-14T09:01:02.941Z,48.96
2023-05-14T09:03:41.317Z,49.15
2023-05-14T09:06:12.049Z,49.34
2023-05-14T09:08:41.510Z,49.57
2023-05-14T09:11:10.572Z,49.63
2023-05-14T09:13:45.782Z,49.78
2023-05-14T09:16:16.064Z,49.70
2023-05-14T09:18:49.003Z,49.62
2023-05-14T09:21:21.464Z,49.60
2023-05-14T09:24:00.574Z,49.81
2023-05-14T09:26:34.456Z,50.01
2023-05-14T09:29:06.384Z,50.31
2023-05-14T09:31:46.130Z,50.47
2023-05-14T09:34:39.007Z,50.65
2023-05-14T09:37:15.043Z,50.89
2023-05-14T09:39:55.979Z,50.99
2023-05-14T09:42:42.561Z,51.04
2023-05-14T09:45:22.674Z,51.20
2023-05-14T09:50:30.829Z,51.28
2023-05-14T09:53:12.833Z,51.31
2023-05-14T09:55:48.476Z,51.42
2023-05-14T09:58:20.480Z,51.61
2023-05-14T10:00:50.407Z,51.77
2023-05-14T10:03:23.461Z,51.97
2023-05-14T10:06:09.717Z,51.96
2023-05-14T10:08:54.317Z,52.19
2023-05-14T10:11:48.062Z,52.14
2023-05-14T10:14:36.889Z,52.11
2023-05-14T10:17:22.191Z,52.07
2023-05-14T10:20:06.817Z,52.39
2023-05-14T10:22:56.013Z,52.78
2023-05-14T10:25:34.196Z,53.08
2023-05-14T10:28:43.264Z,53.15
2023-05-14T10:31:37.756Z,53.08
2023-05-14T10:34:49.375Z,53.33
2023-05-14T10:37:31.432Z,53.44
2023-05-14T10:40:20.079Z,53.19
2023-05-14T10:42:49.791Z,53.24
2023-05-14T10:45:26.859Z,53.36
2023-05-14T10:48:01.681Z,53.45
2023-05-14T10:50:50.524Z,53.33
2023-05-14T10:53:46.373Z,53.46
2023-05-14T10:56:20.371Z,53.42
2023-05-14T10:59:20.258Z,53.24
2023-05-14T11:02:22.775Z,53.37
2023-05-14T11:05:16.439Z,53.48
2023-05-14T11:08:01.323Z,53.51
2023-05-14T11:11:03.231Z,53.56
2023-05-14T11:13:36.376Z,53.64
2023-05-14T11:16:22.633Z,53.50
2023-05-14T11:19:19.293Z,53.57
2023-05-14T11:22:07.831Z,53.65
2023-05-14T11:25:03.136Z,53.73
2023-05-14T11:27:35.644Z,53.68
2023-05-14T11:30:27.914Z,53.81
2023-05-14T11:33:15.773Z,54.07
2023-05-14T11:36:24.425Z,54.15
2023-05-14T11:39:28.064Z,54.19
2023-05-14T11:42:24.856Z,54.28
2023-05-14T11:45:17.923Z,54.52
2023-05-14T11:47:56.992Z,54.68
2023-05-14T11:50:41.554Z,54.80
2023-05-14T11:53:52.436Z,54.80
2023-05-14T11:56:40.127Z,55.09
2023-05-14T11:59:51.621Z,55.31
2023-05-14T12:03:01.797Z,55.59
2023-05-14T12:05:34.135Z,55.76
2023-05-14T12:08:23.454Z,55.77
2023-05-14T12:10:56.129Z,55.65
2023-05-14T12:13:34.096Z,55.71
2023-05-14T12:16:06.587Z,55.81
2023-05-14T12:18:39.572Z,55.89
2023-05-14T12:21:18.564Z,55.98
2023-05-14T12:24:13.668Z,55.99
2023-05-14T12:27:07.176Z,56.03
2023-05-14T12:29:47.301Z,55.96
2023-05-14T12:32:22.529Z,56.11
2023-05-14T12:35:07.118Z,56.20
2023-05-14T12:38:00.201Z,56.18
2023-05-14T12:40:54.007Z,56.20
2023-05-14T12:43:55.373Z,56.21
2023-05-14T12:46:47.717Z,56.09
2023-05-14T12:49:28.778Z,56.16
2023-05-14T12:52:19.831Z,56.19
2023-05-14T12:55:16.241Z,56.19
2023-05-14T12:58:13.276Z,56.39
2023-05-14T13:01:41.633Z,56.38
2023-05-14T13:04:23.794Z,56.70
2023-05-14T13:07:08.756Z,56.81
2023-05-14T13:10:03.024Z,56.84
2023-05-14T13:12:53.681Z,56.87
2023-05-14T13:15:37.972Z,56.71
2023-05-14T13:18:24.759Z,56.72
2023-05-14T13:21:26.969Z,56.69
2023-05-14T13:24:12.050Z,56.84
2023-05-14T13:27:19.521Z,57.02
2023-05-14T13:30:13.502Z,57.16
2023-05-14T13:32:50.017Z,57.18
2023-05-14T13:35:56.343Z,57.23
2023-05-14T13:38:54.505Z,57.26
2023-05-14T13:41:31.025Z,57.36
2023-05-14T13:44:19.523Z,57.46
2023-05-14T13:47:07.056Z,57.53
2023-05-14T13:50:07.975Z,57.65
2023-05-14T13:52:46.628Z,57.74
2023-05-14T13:55:42.072Z,57.80
2023-05-14T13:58:28.402Z,57.82
2023-05-14T14:01:31.770Z,57.76
2023-05-14T14:04:31.132Z,57.80
2023-05-14T14:07:08.660Z,57.82
2023-05-14T14:10:08.621Z,57.82
2023-05-14T14:12:56.375Z,57.90
2023-05-14T14:15:31.932Z,57.78
2023-05-14T14:18:35.527Z,57.76
2023-05-14T14:21:18.733Z,57.72
2023-05-14T14:24:34.945Z,57.77
2023-05-14T14:27:33.754Z,57.63
2023-05-14T14:30:16.467Z,57.44
2023-05-14T14:32:50.327Z,57.28
2023-05-14T14:35:40.334Z,57.10
2023-05-14T14:38:44.556Z,56.67
2023-05-14T14:41:38.033Z,56.34
2023-05-14T14:44:14.473Z,56.28
2023-05-14T14:46:52.649Z,56.51
2023-05-14T14:49:54.087Z,56.15
2023-05-14T14:52:26.715Z,55.93
2023-05-14T14:54:59.857Z,55.86
2023-05-14T14:57:41.694Z,55.73
2023-05-14T15:00:30.782Z,55.49
2023-05-14T15:03:16.049Z,55.38
2023-05-14T15:06:08.207Z,55.15
2023-05-14T15:08:37.368Z,54.74
2023-05-14T15:11:29.768Z,54.76
2023-05-14T15:14:01.777Z,54.50
2023-05-14T15:16:40.267Z,54.43
2023-05-14T15:19:13.922Z,54.23
2023-05-14T15:21:43.482Z,54.13
2023-05-14T15:24:33.228Z,54.43
2023-05-14T15:27:17.164Z,54.21
2023-05-14T15:29:49.546Z,54.03
2023-05-14T15:32:29.474Z,53.97
2023-05-14T15:35:02.420Z,53.61
2023-05-14T15:37:55.877Z,53.71
2023-05-14T15:40:25.617Z,53.75
2023-05-14T15:43:39.241Z,53.59
2023-05-14T15:46:39.010Z,53.53
2023-05-14T15:49:17.327Z,53.65
2023-05-14T15:51:46.376Z,53.45
2023-05-14T15:54:20.943Z,53.49
2023-05-14T15:57:00.195Z,53.50
2023-05-14T15:59:38.014Z,53.48
2023-05-14T16:02:30.311Z,53.63
2023-05-14T16:04:59.802Z,53.61
2023-05-14T16:07:32.195Z,53.46
2023-05-14T16:10:01.620Z,53.32
2023-05-14T16:12:31.120Z,52.85
2023-05-14T16:15:00.883Z,52.70
2023-05-14T16:17:32.894Z,52.72
2023-05-14T16:20:02.614Z,52.67
2023-05-14T16:22:35.818Z,52.56
2023-05-14T16:25:05.983Z,52.32
2023-05-14T16:27:42.775Z,52.17
2023-05-14T16:30:14.991Z,52.06
2023-05-14T16:33:59.371Z,52.08
2023-05-14T16:37:31.273Z,51.91
2023-05-14T16:41:03.706Z,51.64
2023-05-14T16:43:17.878Z,51.29
2023-05-14T16:45:47.061Z,51.24
2023-05-14T16:48:16.145Z,51.17
2023-05-14T16:50:45.295Z,51.09
2023-05-14T16:53:14.330Z,51.01
2023-05-14T16:55:43.218Z,50.83
2023-05-14T16:58:12.707Z,50.59
2023-05-14T17:00:41.751Z,50.46
2023-05-14T17:03:17.090Z,50.39
2023-05-14T17:05:46.529Z,50.29
2023-05-14T17:08:15.868Z,50.09
2023-05-14T17:10:44.818Z,49.98
2023-05-14T17:13:14.221Z,49.86
2023-05-14T17:15:43.490Z,49.55
2023-05-14T17:18:13.070Z,48.99
2023-05-14T17:20:45.248Z,48.20
2023-05-14T17:23:14.518Z,47.92
2023-05-14T17:25:43.386Z,47.54
2023-05-14T17:28:15.907Z,47.11
2023-05-14T17:30:44.979Z,46.72
2023-05-14T17:33:13.877Z,46.34
2023-05-14T17:35:44.823Z,46.38
2023-05-14T17:38:13.877Z,45.81
2023-05-14T17:40:42.993Z,45.50
2023-05-14T17:43:11.896Z,45.54
2023-05-14T17:45:53.169Z,45.34
2023-05-14T17:48:29.005Z,45.00
2023-05-14T17:51:05.322Z,44.73
2023-05-14T17:53:36.480Z,44.55
2023-05-14T17:56:06.212Z,43.82
2023-05-14T17:58:37.370Z,43.46
2023-05-14T18:01:09.681Z,43.22
2023-05-14T18:03:38.847Z,43.27
2023-05-14T18:06:08.025Z,42.35
2023-05-14T18:08:37.271Z,40.83
2023-05-14T18:11:09.663Z,40.51
2023-05-14T18:13:38.696Z,40.22
2023-05-14T18:16:08.077Z,39.38
2023-05-14T18:18:40.303Z,38.57
2023-05-14T18:21:09.445Z,37.77
2023-05-14T18:23:39.054Z,36.61
2023-05-14T18:26:08.674Z,36.03
2023-05-14T18:28:53.168Z,36.23
2023-05-14T18:31:22.346Z,33.77
2023-05-14T18:34:03.544Z,31.10
2023-05-14T18:36:38.946Z,29.81
2023-05-14T18:39:08.923Z,30.03
2023-05-14T18:41:37.942Z,26.73
2023-05-14T18:44:07.256Z,25.94
2023-05-14T18:46:36.696Z,25.18
2023-05-14T18:49:06.269Z,24.35
2023-05-14T18:51:35.419Z,23.01
2023-05-14T18:54:04.728Z,24.00
2023-05-14T18:56:37.532Z,24.84
2023-05-14T18:59:10.609Z,24.09
2023-05-14T19:01:48.720Z,23.65
2023-05-14T19:04:18.271Z,22.83
2023-05-14T19:06:47.245Z,22.30
2023-05-14T19:09:22.342Z,22.02
2023-05-14T19:11:54.902Z,22.05
2023-05-14T19:14:27.508Z,22.82
2023-05-14T19:17:09.168Z,22.09
2023-05-14T19:19:41.168Z,22.29
2023-05-14T19:22:10.967Z,22.39
2023-05-14T19:24:41.195Z,22.57
2023-05-14T19:27:11.287Z,21.78
2023-05-14T19:29:53.973Z,22.25
2023-05-14T19:32:23.236Z,22.68
2023-05-14T19:35:03.030Z,21.96
2023-05-14T19:37:45.772Z,22.46
2023-05-14T19:40:15.094Z,21.56
2023-05-14T19:42:44.527Z,22.75
2023-05-14T19:45:24.186Z,21.86
2023-05-14T19:47:54.382Z,21.95
2023-05-14T19:50:24.064Z,22.20
2023-05-14T19:53:24.926Z,21.65
2023-05-14T19:56:20.388Z,22.40
2023-05-14T19:58:49.556Z,22.03
2023-05-14T20:01:19.026Z,21.52
2023-05-14T20:03:57.254Z,21.21
2023-05-14T20:06:33.094Z,21.42
2023-05-14T20:09:03.085Z,22.11
2023-05-14T20:11:43.865Z,22.03
2023-05-14T20:14:13.320Z,21.90
2023-05-14T20:17:14.547Z,22.70
2023-05-14T20:20:47.822Z,22.63
2023-05-14T20:22:43.624Z,21.81
2023-05-14T20:25:16.883Z,22.72
2023-05-14T20:30:34.477Z,21.12
2023-05-14T20:33:25.421Z,21.17
2023-05-14T20:36:47.692Z,21.37
2023-05-14T20:39:22.691Z,21.99
2023-05-14T20:41:52.709Z,21.87
2023-05-14T20:47:29.996Z,21.76
2023-05-14T20:49:59.671Z,21.46
2023-05-14T20:52:30.368Z,20.87
2023-05-14T20:55:08.306Z,21.24
2023-05-14T20:57:37.345Z,22.34
2023-05-14T21:00:10.999Z,22.57
2023-05-14T21:03:43.961Z,22.65
2023-05-14T21:06:28.047Z,21.17
2023-05-14T21:12:34.477Z,22.40
2023-05-14T21:15:48.912Z,21.84
2023-05-14T21:18:57.223Z,21.82
2023-05-14T21:21:27.032Z,21.03
2023-05-14T21:24:05.621Z,21.44
2023-05-14T21:26:44.244Z,21.40
2023-05-14T21:29:30.937Z,21.41
2023-05-14T21:32:00.147Z,21.65
2023-05-14T21:34:32.948Z,21.53
2023-05-14T21:37:25.009Z,20.97
2023-05-14T21:40:31.975Z,21.08
2023-05-14T21:43:46.530Z,21.00
2023-05-14T21:46:38.299Z,20.98
2023-05-14T21:49:26.059Z,20.79
2023-05-14T21:52:01.351Z,20.91
2023-05-14T21:54:36.678Z,20.46
2023-05-14T21:57:06.136Z,20.21
2023-05-14T21:59:40.637Z,19.95
2023-05-14T22:02:22.038Z,19.99
2023-05-14T22:04:57.768Z,19.67
2023-05-14T22:07:46.342Z,19.61
2023-05-14T22:10:38.349Z,19.94
2023-05-14T22:13:07.634Z,19.33
2023-05-14T22:16:28.464Z,18.62
2023-05-14T22:19:31.004Z,18.75
2023-05-14T22:22:23.363Z,18.88
2023-05-14T22:25:18.748Z,18.67
2023-05-14T22:28:19.127Z,18.45
2023-05-14T22:31:32.116Z,18.38
2023-05-14T22:34:46.596Z,18.13
2023-05-14T22:37:42.711Z,18.04
2023-05-14T22:40:54.654Z,18.20
2023-05-14T22:44:18.355Z,18.16
2023-05-14T22:47:33.447Z,18.25
2023-05-14T22:50:59.829Z,18.62
2023-05-14T22:54:11.112Z,18.83
2023-05-14T22:57:10.224Z,19.24
2023-05-14T22:59:48.513Z,18.97
2023-05-14T23:02:26.867Z,19.47
2023-05-14T23:04:56.392Z,19.55
2023-05-14T23:08:45.611Z,18.84
2023-05-14T23:11:50.252Z,19.37
2023-05-14T23:15:08.121Z,19.15
2023-05-14T23:18:35.872Z,19.28
2023-05-14T23:21:47.841Z,19.90
2023-05-14T23:25:18.512Z,19.24
2023-05-14T23:28:37.147Z,18.67
2023-05-14T23:32:02.967Z,18.68
2023-05-14T23:34:46.907Z,17.94
2023-05-14T23:37:47.981Z,18.04
2023-05-14T23:41:12.210Z,17.77
2023-05-14T23:44:29.004Z,18.01
2023-05-14T23:47:47.961Z,17.66
2023-05-14T23:51:20.009Z,18.24
2023-05-14T23:54:42.678Z,18.29
2023-05-14T23:58:09.254Z,17.96
